sensor_id;sensor_type;location;lat;lon;timestamp;P1;durP1;ratioP1;P2;durP2;ratioP2
59974;SDS011;62136;-35.664;-63.766;2023-03-01T00:01:29;5.50;;;5.00;;
59974;SDS011;62136;-35.664;-63.766;2023-03-01T00:03:57;5.28;;;4.80;;
59974;SDS011;62136;-35.664;-63.766;2023-03-01T00:06:25;5.13;;;4.65;;
59974;SDS011;62136;-35.664;-63.766;2023-03-01T00:08:53;4.97;;;4.47;;
59974;SDS011;62136;-35.664;-63.766;2023-03-01T00:11:22;5.25;;;4.68;;
59974;SDS011;62136;-35.664;-63.766;2023-03-01T00:13:52;5.55;;;5.05;;
59974;SDS011;62136;-35.664;-63.766;2023-03-01T00:16:24;5.53;;;4.82;;
59974;SDS011;62136;-35.664;-63.766;2023-03-01T00:18:54;4.53;;;4.22;;
59974;SDS011;62136;-35.664;-63.766;2023-03-01T00:21:21;5.53;;;4.63;;
59974;SDS011;62136;-35.664;-63.766;2023-03-01T00:23:49;5.15;;;4.65;;
59974;SDS011;62136;-35.664;-63.766;2023-03-01T00:26:17;5.55;;;4.90;;
59974;SDS011;62136;-35.664;-63.766;2023-03-01T00:28:46;5.47;;;4.80;;
59974;SDS011;62136;-35.664;-63.766;2023-03-01T00:31:14;5.00;;;4.50;;
59974;SDS011;62136;-35.664;-63.766;2023-03-01T00:33:43;5.15;;;4.53;;
59974;SDS011;62136;-35.664;-63.766;2023-03-01T00:36:11;5.30;;;4.88;;
59974;SDS011;62136;-35.664;-63.766;2023-03-01T00:38:40;5.18;;;4.70;;
59974;SDS011;62136;-35.664;-63.766;2023-03-01T00:41:10;5.18;;;4.70;;
59974;SDS011;62136;-35.664;-63.766;2023-03-01T00:43:40;4.78;;;4.38;;
59974;SDS011;62136;-35.664;-63.766;2023-03-01T00:46:08;4.63;;;4.22;;
59974;SDS011;62136;-35.664;-63.766;2023-03-01T00:48:37;4.90;;;4.40;;
59974;SDS011;62136;-35.664;-63.766;2023-03-01T00:51:05;6.97;;;5.43;;
59974;SDS011;62136;-35.664;-63.766;2023-03-01T00:53:38;5.40;;;4.60;;
59974;SDS011;62136;-35.664;-63.766;2023-03-01T00:56:06;5.07;;;4.55;;
59974;SDS011;62136;-35.664;-63.766;2023-03-01T00:58:35;5.07;;;4.65;;
59974;SDS011;62136;-35.664;-63.766;2023-03-01T01:01:13;4.35;;;3.95;;
59974;SDS011;62136;-35.664;-63.766;2023-03-01T01:03:46;5.00;;;4.55;;
59974;SDS011;62136;-35.664;-63.766;2023-03-01T01:06:19;4.70;;;4.30;;
59974;SDS011;62136;-35.664;-63.766;2023-03-01T01:08:48;4.68;;;4.28;;
59974;SDS011;62136;-35.664;-63.766;2023-03-01T01:11:16;5.10;;;4.60;;
59974;SDS011;62136;-35.664;-63.766;2023-03-01T01:13:44;5.47;;;4.60;;
59974;SDS011;62136;-35.664;-63.766;2023-03-01T01:16:12;4.88;;;4.47;;
59974;SDS011;62136;-35.664;-63.766;2023-03-01T01:18:40;5.18;;;4.68;;
59974;SDS011;62136;-35.664;-63.766;2023-03-01T01:21:09;5.22;;;4.75;;
59974;SDS011;62136;-35.664;-63.766;2023-03-01T01:23:38;5.45;;;4.95;;
59974;SDS011;62136;-35.664;-63.766;2023-03-01T01:26:07;5.93;;;4.80;;
59974;SDS011;62136;-35.664;-63.766;2023-03-01T01:28:36;5.43;;;4.68;;
59974;SDS011;62136;-35.664;-63.766;2023-03-01T01:31:04;4.65;;;4.25;;
59974;SDS011;62136;-35.664;-63.766;2023-03-01T01:33:31;6.07;;;4.78;;
59974;SDS011;62136;-35.664;-63.766;2023-03-01T01:35:59;5.13;;;4.63;;
59974;SDS011;62136;-35.664;-63.766;2023-03-01T01:38:26;4.80;;;4.40;;
59974;SDS011;62136;-35.664;-63.766;2023-03-01T01:40:53;4.82;;;4.43;;
59974;SDS011;62136;-35.664;-63.766;2023-03-01T01:43:22;5.13;;;4.38;;
59974;SDS011;62136;-35.664;-63.766;2023-03-01T01:48:58;5.22;;;4.70;;
59974;SDS011;62136;-35.664;-63.766;2023-03-01T01:51:36;4.72;;;4.32;;
59974;SDS011;62136;-35.664;-63.766;2023-03-01T01:54:10;5.78;;;4.60;;
59974;SDS011;62136;-35.664;-63.766;2023-03-01T01:56:40;6.05;;;4.38;;
59974;SDS011;62136;-35.664;-63.766;2023-03-01T01:59:17;5.32;;;4.38;;
59974;SDS011;62136;-35.664;-63.766;2023-03-01T02:01:44;4.28;;;3.88;;
59974;SDS011;62136;-35.664;-63.766;2023-03-01T02:04:11;4.38;;;3.97;;
59974;SDS011;62136;-35.664;-63.766;2023-03-01T02:06:42;4.82;;;4.43;;
59974;SDS011;62136;-35.664;-63.766;2023-03-01T02:09:17;5.50;;;4.40;;
59974;SDS011;62136;-35.664;-63.766;2023-03-01T02:11:47;5.30;;;4.80;;
59974;SDS011;62136;-35.664;-63.766;2023-03-01T02:14:14;5.40;;;4.35;;
59974;SDS011;62136;-35.664;-63.766;2023-03-01T02:16:45;5.35;;;4.28;;
59974;SDS011;62136;-35.664;-63.766;2023-03-01T02:19:15;5.30;;;4.57;;
59974;SDS011;62136;-35.664;-63.766;2023-03-01T02:22:22;5.22;;;4.72;;
59974;SDS011;62136;-35.664;-63.766;2023-03-01T02:30:24;4.55;;;4.03;;
59974;SDS011;62136;-35.664;-63.766;2023-03-01T02:32:53;4.85;;;4.35;;
59974;SDS011;62136;-35.664;-63.766;2023-03-01T02:35:33;5.50;;;3.80;;
59974;SDS011;62136;-35.664;-63.766;2023-03-01T02:38:11;4.50;;;4.10;;
59974;SDS011;62136;-35.664;-63.766;2023-03-01T02:40:38;4.95;;;3.97;;
59974;SDS011;62136;-35.664;-63.766;2023-03-01T02:43:08;5.35;;;4.70;;
59974;SDS011;62136;-35.664;-63.766;2023-03-01T02:45:36;4.28;;;3.88;;
59974;SDS011;62136;-35.664;-63.766;2023-03-01T02:48:03;5.10;;;4.60;;
59974;SDS011;62136;-35.664;-63.766;2023-03-01T02:55:30;5.00;;;4.50;;
59974;SDS011;62136;-35.664;-63.766;2023-03-01T02:57:57;4.70;;;4.10;;
59974;SDS011;62136;-35.664;-63.766;2023-03-01T03:00:32;5.60;;;4.40;;
59974;SDS011;62136;-35.664;-63.766;2023-03-01T03:03:15;4.47;;;4.07;;
59974;SDS011;62136;-35.664;-63.766;2023-03-01T03:05:47;4.32;;;3.88;;
59974;SDS011;62136;-35.664;-63.766;2023-03-01T03:08:14;5.15;;;4.53;;
59974;SDS011;62136;-35.664;-63.766;2023-03-01T03:10:49;5.40;;;4.70;;
59974;SDS011;62136;-35.664;-63.766;2023-03-01T03:13:16;4.53;;;4.13;;
59974;SDS011;62136;-35.664;-63.766;2023-03-01T03:15:44;4.70;;;4.15;;
59974;SDS011;62136;-35.664;-63.766;2023-03-01T03:18:12;4.90;;;4.40;;
59974;SDS011;62136;-35.664;-63.766;2023-03-01T03:20:41;5.78;;;4.80;;
59974;SDS011;62136;-35.664;-63.766;2023-03-01T03:23:09;5.57;;;4.00;;
59974;SDS011;62136;-35.664;-63.766;2023-03-01T03:25:37;4.88;;;4.47;;
59974;SDS011;62136;-35.664;-63.766;2023-03-01T03:28:05;4.60;;;4.15;;
59974;SDS011;62136;-35.664;-63.766;2023-03-01T03:30:37;5.57;;;4.18;;
59974;SDS011;62136;-35.664;-63.766;2023-03-01T03:33:09;5.13;;;4.13;;
59974;SDS011;62136;-35.664;-63.766;2023-03-01T03:35:44;5.22;;;4.50;;
59974;SDS011;62136;-35.664;-63.766;2023-03-01T03:38:16;4.55;;;4.07;;
59974;SDS011;62136;-35.664;-63.766;2023-03-01T03:40:48;4.28;;;3.88;;
59974;SDS011;62136;-35.664;-63.766;2023-03-01T03:43:18;4.93;;;4.43;;
59974;SDS011;62136;-35.664;-63.766;2023-03-01T03:45:47;4.38;;;3.90;;
59974;SDS011;62136;-35.664;-63.766;2023-03-01T03:48:16;5.28;;;4.53;;
59974;SDS011;62136;-35.664;-63.766;2023-03-01T03:50:47;4.65;;;3.80;;
59974;SDS011;62136;-35.664;-63.766;2023-03-01T03:53:15;4.30;;;3.90;;
59974;SDS011;62136;-35.664;-63.766;2023-03-01T03:55:46;6.00;;;4.47;;
59974;SDS011;62136;-35.664;-63.766;2023-03-01T03:58:17;4.28;;;3.40;;
59974;SDS011;62136;-35.664;-63.766;2023-03-01T04:00:49;4.07;;;3.67;;
59974;SDS011;62136;-35.664;-63.766;2023-03-01T04:03:19;4.15;;;3.75;;
59974;SDS011;62136;-35.664;-63.766;2023-03-01T04:05:47;5.05;;;3.95;;
59974;SDS011;62136;-35.664;-63.766;2023-03-01T04:08:16;4.15;;;3.72;;
59974;SDS011;62136;-35.664;-63.766;2023-03-01T04:10:51;6.95;;;4.18;;
59974;SDS011;62136;-35.664;-63.766;2023-03-01T04:13:25;4.60;;;4.20;;
59974;SDS011;62136;-35.664;-63.766;2023-03-01T04:15:52;5.72;;;3.97;;
59974;SDS011;62136;-35.664;-63.766;2023-03-01T04:18:21;4.13;;;3.72;;
59974;SDS011;62136;-35.664;-63.766;2023-03-01T04:20:52;4.00;;;3.60;;
59974;SDS011;62136;-35.664;-63.766;2023-03-01T04:23:20;5.15;;;4.38;;
59974;SDS011;62136;-35.664;-63.766;2023-03-01T04:25:51;4.40;;;4.00;;
59974;SDS011;62136;-35.664;-63.766;2023-03-01T04:28:24;4.78;;;4.07;;
59974;SDS011;62136;-35.664;-63.766;2023-03-01T04:30:53;4.13;;;3.72;;
59974;SDS011;62136;-35.664;-63.766;2023-03-01T04:33:21;5.13;;;4.20;;
59974;SDS011;62136;-35.664;-63.766;2023-03-01T04:35:49;4.07;;;3.67;;
59974;SDS011;62136;-35.664;-63.766;2023-03-01T04:38:20;4.57;;;3.70;;
59974;SDS011;62136;-35.664;-63.766;2023-03-01T04:40:47;4.93;;;3.50;;
59974;SDS011;62136;-35.664;-63.766;2023-03-01T04:43:14;5.05;;;4.05;;
59974;SDS011;62136;-35.664;-63.766;2023-03-01T04:45:41;5.07;;;3.97;;
59974;SDS011;62136;-35.664;-63.766;2023-03-01T04:48:12;4.63;;;3.97;;
59974;SDS011;62136;-35.664;-63.766;2023-03-01T04:50:39;5.78;;;4.22;;
59974;SDS011;62136;-35.664;-63.766;2023-03-01T04:53:06;4.10;;;3.70;;
59974;SDS011;62136;-35.664;-63.766;2023-03-01T04:55:33;4.25;;;3.85;;
59974;SDS011;62136;-35.664;-63.766;2023-03-01T04:58:00;4.18;;;3.78;;
59974;SDS011;62136;-35.664;-63.766;2023-03-01T05:00:27;4.28;;;3.88;;
59974;SDS011;62136;-35.664;-63.766;2023-03-01T05:02:59;4.30;;;3.50;;
59974;SDS011;62136;-35.664;-63.766;2023-03-01T05:05:28;4.82;;;4.32;;
59974;SDS011;62136;-35.664;-63.766;2023-03-01T05:08:01;4.20;;;3.80;;
59974;SDS011;62136;-35.664;-63.766;2023-03-01T05:10:29;3.50;;;3.20;;
59974;SDS011;62136;-35.664;-63.766;2023-03-01T05:12:58;3.60;;;3.30;;
59974;SDS011;62136;-35.664;-63.766;2023-03-01T05:15:26;4.03;;;3.72;;
59974;SDS011;62136;-35.664;-63.766;2023-03-01T05:17:56;4.43;;;3.90;;
59974;SDS011;62136;-35.664;-63.766;2023-03-01T05:20:25;4.75;;;3.60;;
59974;SDS011;62136;-35.664;-63.766;2023-03-01T05:22:55;5.05;;;4.00;;
59974;SDS011;62136;-35.664;-63.766;2023-03-01T05:25:24;5.47;;;3.50;;
59974;SDS011;62136;-35.664;-63.766;2023-03-01T05:27:52;4.05;;;3.70;;
59974;SDS011;62136;-35.664;-63.766;2023-03-01T05:30:19;4.38;;;3.55;;
59974;SDS011;62136;-35.664;-63.766;2023-03-01T05:32:48;5.15;;;3.90;;
59974;SDS011;62136;-35.664;-63.766;2023-03-01T05:37:47;3.97;;;3.60;;
59974;SDS011;62136;-35.664;-63.766;2023-03-01T05:40:17;3.65;;;3.35;;
59974;SDS011;62136;-35.664;-63.766;2023-03-01T05:42:46;5.22;;;3.78;;
59974;SDS011;62136;-35.664;-63.766;2023-03-01T05:45:17;4.00;;;3.60;;
59974;SDS011;62136;-35.664;-63.766;2023-03-01T05:47:45;4.45;;;3.65;;
59974;SDS011;62136;-35.664;-63.766;2023-03-01T05:50:14;4.32;;;3.70;;
59974;SDS011;62136;-35.664;-63.766;2023-03-01T05:52:47;4.70;;;3.63;;
59974;SDS011;62136;-35.664;-63.766;2023-03-01T05:55:16;4.10;;;3.35;;
59974;SDS011;62136;-35.664;-63.766;2023-03-01T05:57:45;4.35;;;3.80;;
59974;SDS011;62136;-35.664;-63.766;2023-03-01T06:00:13;4.25;;;3.50;;
59974;SDS011;62136;-35.664;-63.766;2023-03-01T06:02:41;3.95;;;3.55;;
59974;SDS011;62136;-35.664;-63.766;2023-03-01T06:05:09;5.25;;;3.65;;
59974;SDS011;62136;-35.664;-63.766;2023-03-01T06:07:38;3.85;;;3.45;;
59974;SDS011;62136;-35.664;-63.766;2023-03-01T06:10:05;3.90;;;3.60;;
59974;SDS011;62136;-35.664;-63.766;2023-03-01T06:12:35;3.55;;;3.20;;
59974;SDS011;62136;-35.664;-63.766;2023-03-01T06:15:04;4.25;;;3.85;;
59974;SDS011;62136;-35.664;-63.766;2023-03-01T06:17:33;4.18;;;3.78;;
59974;SDS011;62136;-35.664;-63.766;2023-03-01T06:20:07;3.83;;;3.53;;
59974;SDS011;62136;-35.664;-63.766;2023-03-01T06:22:37;3.70;;;3.40;;
59974;SDS011;62136;-35.664;-63.766;2023-03-01T06:25:05;3.90;;;3.33;;
59974;SDS011;62136;-35.664;-63.766;2023-03-01T06:27:33;4.18;;;3.47;;
59974;SDS011;62136;-35.664;-63.766;2023-03-01T06:30:00;4.32;;;3.47;;
59974;SDS011;62136;-35.664;-63.766;2023-03-01T06:32:28;4.00;;;3.60;;
59974;SDS011;62136;-35.664;-63.766;2023-03-01T06:34:56;4.72;;;3.35;;
59974;SDS011;62136;-35.664;-63.766;2023-03-01T06:37:24;3.95;;;3.28;;
59974;SDS011;62136;-35.664;-63.766;2023-03-01T06:39:51;3.47;;;3.17;;
59974;SDS011;62136;-35.664;-63.766;2023-03-01T06:42:18;3.08;;;2.88;;
59974;SDS011;62136;-35.664;-63.766;2023-03-01T06:44:45;6.15;;;3.38;;
59974;SDS011;62136;-35.664;-63.766;2023-03-01T06:47:12;3.85;;;3.35;;
59974;SDS011;62136;-35.664;-63.766;2023-03-01T06:49:40;3.67;;;3.33;;
59974;SDS011;62136;-35.664;-63.766;2023-03-01T06:52:07;3.95;;;3.28;;
59974;SDS011;62136;-35.664;-63.766;2023-03-01T06:54:34;3.50;;;3.20;;
59974;SDS011;62136;-35.664;-63.766;2023-03-01T06:57:01;3.97;;;3.00;;
59974;SDS011;62136;-35.664;-63.766;2023-03-01T06:59:28;3.85;;;3.35;;
59974;SDS011;62136;-35.664;-63.766;2023-03-01T07:01:55;6.03;;;3.63;;
59974;SDS011;62136;-35.664;-63.766;2023-03-01T07:04:22;3.78;;;3.22;;
59974;SDS011;62136;-35.664;-63.766;2023-03-01T07:06:49;3.50;;;3.20;;
59974;SDS011;62136;-35.664;-63.766;2023-03-01T07:09:21;3.50;;;3.20;;
59974;SDS011;62136;-35.664;-63.766;2023-03-01T07:11:49;3.40;;;3.00;;
59974;SDS011;62136;-35.664;-63.766;2023-03-01T07:14:16;3.30;;;3.00;;
59974;SDS011;62136;-35.664;-63.766;2023-03-01T07:16:45;3.55;;;3.10;;
59974;SDS011;62136;-35.664;-63.766;2023-03-01T07:19:12;3.90;;;3.30;;
59974;SDS011;62136;-35.664;-63.766;2023-03-01T07:21:39;3.80;;;3.20;;
59974;SDS011;62136;-35.664;-63.766;2023-03-01T07:24:06;3.80;;;3.30;;
59974;SDS011;62136;-35.664;-63.766;2023-03-01T07:26:34;3.45;;;3.13;;
59974;SDS011;62136;-35.664;-63.766;2023-03-01T07:29:05;3.83;;;3.53;;
59974;SDS011;62136;-35.664;-63.766;2023-03-01T07:31:32;3.60;;;3.20;;
59974;SDS011;62136;-35.664;-63.766;2023-03-01T07:34:00;3.83;;;3.10;;
59974;SDS011;62136;-35.664;-63.766;2023-03-01T07:36:27;3.92;;;3.38;;
59974;SDS011;62136;-35.664;-63.766;2023-03-01T07:38:54;3.03;;;2.78;;
59974;SDS011;62136;-35.664;-63.766;2023-03-01T07:41:21;3.65;;;3.08;;
59974;SDS011;62136;-35.664;-63.766;2023-03-01T07:43:48;3.35;;;3.03;;
59974;SDS011;62136;-35.664;-63.766;2023-03-01T07:46:15;3.35;;;2.97;;
59974;SDS011;62136;-35.664;-63.766;2023-03-01T07:48:44;3.40;;;3.10;;
59974;SDS011;62136;-35.664;-63.766;2023-03-01T07:51:11;3.20;;;2.88;;
59974;SDS011;62136;-35.664;-63.766;2023-03-01T07:53:38;3.35;;;2.92;;
59974;SDS011;62136;-35.664;-63.766;2023-03-01T07:58:37;6.38;;;3.30;;
59974;SDS011;62136;-35.664;-63.766;2023-03-01T08:01:08;3.58;;;2.92;;
59974;SDS011;62136;-35.664;-63.766;2023-03-01T08:03:37;4.78;;;3.10;;
59974;SDS011;62136;-35.664;-63.766;2023-03-01T08:06:05;4.32;;;2.92;;
59974;SDS011;62136;-35.664;-63.766;2023-03-01T08:08:33;3.55;;;3.00;;
59974;SDS011;62136;-35.664;-63.766;2023-03-01T08:11:02;3.63;;;2.60;;
59974;SDS011;62136;-35.664;-63.766;2023-03-01T08:13:31;3.40;;;3.10;;
59974;SDS011;62136;-35.664;-63.766;2023-03-01T08:16:05;3.30;;;3.00;;
59974;SDS011;62136;-35.664;-63.766;2023-03-01T08:18:34;3.75;;;3.10;;
59974;SDS011;62136;-35.664;-63.766;2023-03-01T08:21:02;3.30;;;3.08;;
59974;SDS011;62136;-35.664;-63.766;2023-03-01T08:23:30;3.20;;;3.00;;
59974;SDS011;62136;-35.664;-63.766;2023-03-01T08:26:03;4.65;;;3.17;;
59974;SDS011;62136;-35.664;-63.766;2023-03-01T08:28:34;3.25;;;2.95;;
59974;SDS011;62136;-35.664;-63.766;2023-03-01T08:31:02;3.63;;;2.92;;
59974;SDS011;62136;-35.664;-63.766;2023-03-01T08:33:38;3.22;;;2.90;;
59974;SDS011;62136;-35.664;-63.766;2023-03-01T08:36:05;3.20;;;2.90;;
59974;SDS011;62136;-35.664;-63.766;2023-03-01T08:38:33;4.30;;;2.85;;
59974;SDS011;62136;-35.664;-63.766;2023-03-01T08:41:01;3.05;;;2.75;;
59974;SDS011;62136;-35.664;-63.766;2023-03-01T08:43:29;3.35;;;3.05;;
59974;SDS011;62136;-35.664;-63.766;2023-03-01T08:45:56;3.80;;;2.88;;
59974;SDS011;62136;-35.664;-63.766;2023-03-01T08:48:23;4.15;;;3.03;;
59974;SDS011;62136;-35.664;-63.766;2023-03-01T08:50:50;3.33;;;3.00;;
59974;SDS011;62136;-35.664;-63.766;2023-03-01T08:53:18;4.25;;;3.10;;
59974;SDS011;62136;-35.664;-63.766;2023-03-01T08:55:45;3.42;;;2.70;;
59974;SDS011;62136;-35.664;-63.766;2023-03-01T08:58:12;3.90;;;3.47;;
59974;SDS011;62136;-35.664;-63.766;2023-03-01T09:00:39;3.15;;;2.85;;
59974;SDS011;62136;-35.664;-63.766;2023-03-01T09:03:06;2.85;;;2.53;;
59974;SDS011;62136;-35.664;-63.766;2023-03-01T09:05:33;2.92;;;2.58;;
59974;SDS011;62136;-35.664;-63.766;2023-03-01T09:08:02;3.20;;;2.80;;
59974;SDS011;62136;-35.664;-63.766;2023-03-01T09:10:29;2.70;;;2.50;;
59974;SDS011;62136;-35.664;-63.766;2023-03-01T09:12:56;3.60;;;2.50;;
59974;SDS011;62136;-35.664;-63.766;2023-03-01T09:15:23;5.10;;;2.88;;
59974;SDS011;62136;-35.664;-63.766;2023-03-01T09:17:50;3.65;;;2.60;;
59974;SDS011;62136;-35.664;-63.766;2023-03-01T09:20:17;3.10;;;2.83;;
59974;SDS011;62136;-35.664;-63.766;2023-03-01T09:22:44;3.05;;;2.85;;
59974;SDS011;62136;-35.664;-63.766;2023-03-01T09:25:14;2.95;;;2.67;;
59974;SDS011;62136;-35.664;-63.766;2023-03-01T09:27:41;3.38;;;2.90;;
59974;SDS011;62136;-35.664;-63.766;2023-03-01T09:30:09;3.15;;;2.85;;
59974;SDS011;62136;-35.664;-63.766;2023-03-01T09:32:37;2.97;;;2.75;;
59974;SDS011;62136;-35.664;-63.766;2023-03-01T09:35:08;3.65;;;2.65;;
59974;SDS011;62136;-35.664;-63.766;2023-03-01T09:37:35;3.05;;;2.75;;
59974;SDS011;62136;-35.664;-63.766;2023-03-01T09:40:06;3.10;;;2.80;;
59974;SDS011;62136;-35.664;-63.766;2023-03-01T09:42:45;3.85;;;2.60;;
59974;SDS011;62136;-35.664;-63.766;2023-03-01T09:45:35;2.83;;;2.53;;
59974;SDS011;62136;-35.664;-63.766;2023-03-01T09:48:07;2.92;;;2.60;;
59974;SDS011;62136;-35.664;-63.766;2023-03-01T09:50:41;2.88;;;2.33;;
59974;SDS011;62136;-35.664;-63.766;2023-03-01T09:53:13;3.10;;;2.80;;
59974;SDS011;62136;-35.664;-63.766;2023-03-01T10:01:11;3.25;;;2.80;;
59974;SDS011;62136;-35.664;-63.766;2023-03-01T10:09:40;4.80;;;2.40;;
59974;SDS011;62136;-35.664;-63.766;2023-03-01T10:12:20;5.15;;;2.70;;
59974;SDS011;62136;-35.664;-63.766;2023-03-01T10:15:02;5.05;;;2.70;;
59974;SDS011;62136;-35.664;-63.766;2023-03-01T10:22:50;3.83;;;2.58;;
59974;SDS011;62136;-35.664;-63.766;2023-03-01T10:28:47;4.97;;;3.00;;
59974;SDS011;62136;-35.664;-63.766;2023-03-01T10:31:24;5.38;;;2.88;;
59974;SDS011;62136;-35.664;-63.766;2023-03-01T10:33:55;6.35;;;3.15;;
59974;SDS011;62136;-35.664;-63.766;2023-03-01T10:36:24;4.03;;;3.17;;
59974;SDS011;62136;-35.664;-63.766;2023-03-01T10:38:53;7.40;;;3.00;;
59974;SDS011;62136;-35.664;-63.766;2023-03-01T10:41:24;6.78;;;3.40;;
59974;SDS011;62136;-35.664;-63.766;2023-03-01T10:43:55;5.00;;;3.05;;
59974;SDS011;62136;-35.664;-63.766;2023-03-01T10:46:36;7.22;;;3.47;;
59974;SDS011;62136;-35.664;-63.766;2023-03-01T10:49:20;4.75;;;2.85;;
59974;SDS011;62136;-35.664;-63.766;2023-03-01T10:51:51;5.22;;;3.15;;
59974;SDS011;62136;-35.664;-63.766;2023-03-01T10:56:59;5.70;;;3.28;;
59974;SDS011;62136;-35.664;-63.766;2023-03-01T10:59:30;4.85;;;3.17;;
59974;SDS011;62136;-35.664;-63.766;2023-03-01T11:04:35;7.00;;;3.20;;
59974;SDS011;62136;-35.664;-63.766;2023-03-01T11:07:02;3.50;;;2.50;;
59974;SDS011;62136;-35.664;-63.766;2023-03-01T11:09:33;4.15;;;3.33;;
59974;SDS011;62136;-35.664;-63.766;2023-03-01T11:12:08;6.13;;;3.00;;
59974;SDS011;62136;-35.664;-63.766;2023-03-01T11:14:48;4.78;;;2.92;;
59974;SDS011;62136;-35.664;-63.766;2023-03-01T11:17:27;6.97;;;3.30;;
59974;SDS011;62136;-35.664;-63.766;2023-03-01T11:20:00;5.20;;;3.08;;
59974;SDS011;62136;-35.664;-63.766;2023-03-01T11:22:29;6.90;;;3.22;;
59974;SDS011;62136;-35.664;-63.766;2023-03-01T11:25:00;5.78;;;2.88;;
59974;SDS011;62136;-35.664;-63.766;2023-03-01T11:27:29;5.53;;;2.85;;
59974;SDS011;62136;-35.664;-63.766;2023-03-01T11:35:44;5.10;;;2.80;;
59974;SDS011;62136;-35.664;-63.766;2023-03-01T11:38:23;5.63;;;2.58;;
59974;SDS011;62136;-35.664;-63.766;2023-03-01T11:46:51;4.65;;;3.22;;
59974;SDS011;62136;-35.664;-63.766;2023-03-01T12:11:16;5.72;;;3.05;;
59974;SDS011;62136;-35.664;-63.766;2023-03-01T12:25:41;8.48;;;3.13;;
59974;SDS011;62136;-35.664;-63.766;2023-03-01T12:28:38;5.97;;;3.05;;
59974;SDS011;62136;-35.664;-63.766;2023-03-01T12:34:01;4.22;;;2.47;;
59974;SDS011;62136;-35.664;-63.766;2023-03-01T12:45:26;3.00;;;2.67;;
59974;SDS011;62136;-35.664;-63.766;2023-03-01T12:48:21;4.55;;;2.40;;
59974;SDS011;62136;-35.664;-63.766;2023-03-01T12:51:09;3.15;;;2.63;;
59974;SDS011;62136;-35.664;-63.766;2023-03-01T12:53:44;3.70;;;2.60;;
59974;SDS011;62136;-35.664;-63.766;2023-03-01T12:56:17;4.57;;;2.50;;
59974;SDS011;62136;-35.664;-63.766;2023-03-01T12:59:07;3.53;;;2.10;;
59974;SDS011;62136;-35.664;-63.766;2023-03-01T13:01:53;3.33;;;2.30;;
59974;SDS011;62136;-35.664;-63.766;2023-03-01T13:12:57;4.05;;;2.30;;
59974;SDS011;62136;-35.664;-63.766;2023-03-01T13:15:37;3.33;;;2.30;;
59974;SDS011;62136;-35.664;-63.766;2023-03-01T13:20:46;4.03;;;2.30;;
59974;SDS011;62136;-35.664;-63.766;2023-03-01T13:38:59;4.13;;;2.40;;
59974;SDS011;62136;-35.664;-63.766;2023-03-01T13:46:45;2.58;;;2.20;;
59974;SDS011;62136;-35.664;-63.766;2023-03-01T13:49:18;2.97;;;2.22;;
59974;SDS011;62136;-35.664;-63.766;2023-03-01T13:51:48;3.83;;;2.55;;
59974;SDS011;62136;-35.664;-63.766;2023-03-01T13:54:16;4.47;;;2.25;;
59974;SDS011;62136;-35.664;-63.766;2023-03-01T13:56:53;2.55;;;2.35;;
59974;SDS011;62136;-35.664;-63.766;2023-03-01T13:59:22;5.03;;;2.30;;
59974;SDS011;62136;-35.664;-63.766;2023-03-01T14:01:53;2.30;;;2.08;;
59974;SDS011;62136;-35.664;-63.766;2023-03-01T14:04:29;4.40;;;2.42;;
59974;SDS011;62136;-35.664;-63.766;2023-03-01T14:07:12;3.60;;;2.20;;
59974;SDS011;62136;-35.664;-63.766;2023-03-01T14:09:49;4.07;;;2.75;;
59974;SDS011;62136;-35.664;-63.766;2023-03-01T14:12:32;3.92;;;2.40;;
59974;SDS011;62136;-35.664;-63.766;2023-03-01T14:20:28;5.72;;;2.58;;
59974;SDS011;62136;-35.664;-63.766;2023-03-01T14:23:10;5.68;;;2.63;;
59974;SDS011;62136;-35.664;-63.766;2023-03-01T14:25:45;3.72;;;2.47;;
59974;SDS011;62136;-35.664;-63.766;2023-03-01T14:30:48;4.53;;;2.58;;
59974;SDS011;62136;-35.664;-63.766;2023-03-01T14:33:29;6.15;;;2.75;;
59974;SDS011;62136;-35.664;-63.766;2023-03-01T14:36:11;4.53;;;2.58;;
59974;SDS011;62136;-35.664;-63.766;2023-03-01T14:43:44;5.60;;;2.75;;
59974;SDS011;62136;-35.664;-63.766;2023-03-01T14:46:21;3.45;;;2.67;;
59974;SDS011;62136;-35.664;-63.766;2023-03-01T14:51:20;3.95;;;2.70;;
59974;SDS011;62136;-35.664;-63.766;2023-03-01T14:53:48;4.90;;;2.72;;
59974;SDS011;62136;-35.664;-63.766;2023-03-01T14:56:16;4.80;;;2.90;;
59974;SDS011;62136;-35.664;-63.766;2023-03-01T14:58:45;4.35;;;2.40;;
59974;SDS011;62136;-35.664;-63.766;2023-03-01T15:01:16;7.25;;;2.40;;
59974;SDS011;62136;-35.664;-63.766;2023-03-01T15:03:48;3.30;;;2.53;;
59974;SDS011;62136;-35.664;-63.766;2023-03-01T15:06:22;3.75;;;2.92;;
59974;SDS011;62136;-35.664;-63.766;2023-03-01T15:09:02;2.50;;;2.30;;
59974;SDS011;62136;-35.664;-63.766;2023-03-01T15:11:31;4.28;;;2.60;;
59974;SDS011;62136;-35.664;-63.766;2023-03-01T15:13:59;2.83;;;2.20;;
59974;SDS011;62136;-35.664;-63.766;2023-03-01T15:16:27;2.63;;;2.40;;
59974;SDS011;62136;-35.664;-63.766;2023-03-01T15:19:07;3.65;;;2.63;;
59974;SDS011;62136;-35.664;-63.766;2023-03-01T15:21:44;5.78;;;2.40;;
59974;SDS011;62136;-35.664;-63.766;2023-03-01T15:24:20;4.18;;;2.58;;
59974;SDS011;62136;-35.664;-63.766;2023-03-01T15:29:30;4.18;;;2.78;;
59974;SDS011;62136;-35.664;-63.766;2023-03-01T15:32:00;2.85;;;2.30;;
59974;SDS011;62136;-35.664;-63.766;2023-03-01T15:34:31;3.40;;;2.42;;
59974;SDS011;62136;-35.664;-63.766;2023-03-01T15:37:00;4.25;;;2.67;;
59974;SDS011;62136;-35.664;-63.766;2023-03-01T15:44:32;4.07;;;2.72;;
59974;SDS011;62136;-35.664;-63.766;2023-03-01T15:47:00;3.80;;;2.70;;
59974;SDS011;62136;-35.664;-63.766;2023-03-01T15:51:59;4.32;;;2.55;;
59974;SDS011;62136;-35.664;-63.766;2023-03-01T15:54:28;3.80;;;2.47;;
59974;SDS011;62136;-35.664;-63.766;2023-03-01T15:56:55;2.92;;;2.50;;
59974;SDS011;62136;-35.664;-63.766;2023-03-01T15:59:22;3.47;;;2.33;;
59974;SDS011;62136;-35.664;-63.766;2023-03-01T16:01:49;4.78;;;2.60;;
59974;SDS011;62136;-35.664;-63.766;2023-03-01T16:04:17;3.40;;;2.50;;
59974;SDS011;62136;-35.664;-63.766;2023-03-01T16:06:49;3.63;;;2.40;;
59974;SDS011;62136;-35.664;-63.766;2023-03-01T16:09:23;3.20;;;2.42;;
59974;SDS011;62136;-35.664;-63.766;2023-03-01T16:11:52;3.45;;;2.22;;
59974;SDS011;62136;-35.664;-63.766;2023-03-01T16:14:20;2.60;;;2.40;;
59974;SDS011;62136;-35.664;-63.766;2023-03-01T16:16:47;3.95;;;2.50;;
59974;SDS011;62136;-35.664;-63.766;2023-03-01T16:19:15;3.30;;;2.50;;
59974;SDS011;62136;-35.664;-63.766;2023-03-01T16:21:42;2.90;;;2.20;;
59974;SDS011;62136;-35.664;-63.766;2023-03-01T16:24:12;2.63;;;2.30;;
59974;SDS011;62136;-35.664;-63.766;2023-03-01T16:26:40;4.07;;;2.53;;
59974;SDS011;62136;-35.664;-63.766;2023-03-01T16:29:07;4.50;;;2.60;;
59974;SDS011;62136;-35.664;-63.766;2023-03-01T16:31:35;4.53;;;2.30;;
59974;SDS011;62136;-35.664;-63.766;2023-03-01T16:34:03;2.88;;;2.10;;
59974;SDS011;62136;-35.664;-63.766;2023-03-01T16:36:30;2.45;;;2.25;;
59974;SDS011;62136;-35.664;-63.766;2023-03-01T16:38:58;3.70;;;2.33;;
59974;SDS011;62136;-35.664;-63.766;2023-03-01T16:41:28;3.47;;;2.22;;
59974;SDS011;62136;-35.664;-63.766;2023-03-01T16:43:56;2.30;;;2.08;;
59974;SDS011;62136;-35.664;-63.766;2023-03-01T16:46:24;4.15;;;2.15;;
59974;SDS011;62136;-35.664;-63.766;2023-03-01T16:48:55;2.55;;;2.08;;
59974;SDS011;62136;-35.664;-63.766;2023-03-01T16:51:23;2.53;;;2.25;;
59974;SDS011;62136;-35.664;-63.766;2023-03-01T16:53:50;3.67;;;2.00;;
59974;SDS011;62136;-35.664;-63.766;2023-03-01T16:56:18;2.80;;;2.30;;
59974;SDS011;62136;-35.664;-63.766;2023-03-01T16:58:45;3.35;;;2.45;;
59974;SDS011;62136;-35.664;-63.766;2023-03-01T17:01:13;3.95;;;2.22;;
59974;SDS011;62136;-35.664;-63.766;2023-03-01T17:03:43;2.78;;;2.50;;
59974;SDS011;62136;-35.664;-63.766;2023-03-01T17:06:12;2.40;;;2.17;;